sensor_id;sensor_type;location;lat;lon;timestamp;P1;durP1;ratioP1;P2;durP2;ratioP2
7051;SDS011;3567;52.444;13.556;2022-09-17T00:01:57;6.30;;;1.45;;
7051;SDS011;3567;52.444;13.556;2022-09-17T00:04:23;7.30;;;2.22;;
7051;SDS011;3567;52.444;13.556;2022-09-17T00:06:48;4.60;;;1.92;;
7051;SDS011;3567;52.444;13.556;2022-09-17T00:09:14;7.88;;;2.00;;
7051;SDS011;3567;52.444;13.556;2022-09-17T00:11:40;8.85;;;2.22;;
7051;SDS011;3567;52.444;13.556;2022-09-17T00:14:07;10.60;;;2.20;;
7051;SDS011;3567;52.444;13.556;2022-09-17T00:16:39;8.52;;;2.92;;
7051;SDS011;3567;52.444;13.556;2022-09-17T00:19:06;8.43;;;2.50;;
7051;SDS011;3567;52.444;13.556;2022-09-17T00:21:36;9.07;;;3.70;;
7051;SDS011;3567;52.444;13.556;2022-09-17T00:24:02;9.00;;;3.28;;
7051;SDS011;3567;52.444;13.556;2022-09-17T00:26:30;8.57;;;2.60;;
7051;SDS011;3567;52.444;13.556;2022-09-17T00:28:56;10.93;;;2.95;;
7051;SDS011;3567;52.444;13.556;2022-09-17T00:31:22;6.55;;;2.47;;
7051;SDS011;3567;52.444;13.556;2022-09-17T00:33:48;7.63;;;2.88;;
7051;SDS011;3567;52.444;13.556;2022-09-17T00:36:14;9.55;;;3.42;;
7051;SDS011;3567;52.444;13.556;2022-09-17T00:38:40;7.68;;;2.75;;
7051;SDS011;3567;52.444;13.556;2022-09-17T00:41:06;11.10;;;3.38;;
7051;SDS011;3567;52.444;13.556;2022-09-17T00:43:36;11.75;;;2.50;;
7051;SDS011;3567;52.444;13.556;2022-09-17T00:46:11;9.40;;;2.58;;
7051;SDS011;3567;52.444;13.556;2022-09-17T00:48:40;9.15;;;3.55;;
7051;SDS011;3567;52.444;13.556;2022-09-17T00:51:05;8.20;;;3.42;;
7051;SDS011;3567;52.444;13.556;2022-09-17T00:53:34;13.27;;;3.33;;
7051;SDS011;3567;52.444;13.556;2022-09-17T00:56:02;7.65;;;3.10;;
7051;SDS011;3567;52.444;13.556;2022-09-17T00:58:30;6.15;;;3.03;;
7051;SDS011;3567;52.444;13.556;2022-09-17T01:00:57;9.60;;;3.22;;
7051;SDS011;3567;52.444;13.556;2022-09-17T01:03:24;9.88;;;2.83;;
7051;SDS011;3567;52.444;13.556;2022-09-17T01:05:56;11.25;;;3.03;;
7051;SDS011;3567;52.444;13.556;2022-09-17T01:25:36;8.90;;;2.75;;
7051;SDS011;3567;52.444;13.556;2022-09-17T01:28:28;10.10;;;2.75;;
7051;SDS011;3567;52.444;13.556;2022-09-17T01:31:02;9.35;;;2.72;;
7051;SDS011;3567;52.444;13.556;2022-09-17T01:33:52;9.27;;;2.83;;
7051;SDS011;3567;52.444;13.556;2022-09-17T01:44:46;14.00;;;2.50;;
7051;SDS011;3567;52.444;13.556;2022-09-17T01:47:30;11.85;;;2.42;;
7051;SDS011;3567;52.444;13.556;2022-09-17T01:50:00;7.53;;;2.83;;
7051;SDS011;3567;52.444;13.556;2022-09-17T01:52:30;7.55;;;2.72;;
7051;SDS011;3567;52.444;13.556;2022-09-17T01:54:59;8.38;;;2.10;;
7051;SDS011;3567;52.444;13.556;2022-09-17T01:57:29;10.02;;;3.00;;
7051;SDS011;3567;52.444;13.556;2022-09-17T02:00:16;10.77;;;2.63;;
7051;SDS011;3567;52.444;13.556;2022-09-17T02:08:10;11.00;;;2.72;;
7051;SDS011;3567;52.444;13.556;2022-09-17T02:10:51;7.85;;;2.50;;
7051;SDS011;3567;52.444;13.556;2022-09-17T02:13:31;9.80;;;2.10;;
7051;SDS011;3567;52.444;13.556;2022-09-17T02:16:14;11.70;;;2.72;;
7051;SDS011;3567;52.444;13.556;2022-09-17T02:21:23;5.93;;;2.25;;
7051;SDS011;3567;52.444;13.556;2022-09-17T02:24:10;7.88;;;2.90;;
7051;SDS011;3567;52.444;13.556;2022-09-17T02:26:48;9.88;;;2.70;;
7051;SDS011;3567;52.444;13.556;2022-09-17T02:29:36;9.10;;;2.40;;
7051;SDS011;3567;52.444;13.556;2022-09-17T02:32:04;10.50;;;2.42;;
7051;SDS011;3567;52.444;13.556;2022-09-17T02:34:30;8.88;;;2.75;;
7051;SDS011;3567;52.444;13.556;2022-09-17T02:36:56;9.32;;;2.50;;
7051;SDS011;3567;52.444;13.556;2022-09-17T02:39:25;13.15;;;3.13;;
7051;SDS011;3567;52.444;13.556;2022-09-17T02:42:00;6.97;;;2.60;;
7051;SDS011;3567;52.444;13.556;2022-09-17T02:44:33;8.57;;;2.53;;
7051;SDS011;3567;52.444;13.556;2022-09-17T02:52:30;6.90;;;2.63;;
7051;SDS011;3567;52.444;13.556;2022-09-17T02:55:10;11.27;;;2.95;;
7051;SDS011;3567;52.444;13.556;2022-09-17T02:57:53;13.02;;;3.13;;
7051;SDS011;3567;52.444;13.556;2022-09-17T03:00:24;10.45;;;3.17;;
7051;SDS011;3567;52.444;13.556;2022-09-17T03:05:23;12.15;;;2.90;;
7051;SDS011;3567;52.444;13.556;2022-09-17T03:07:50;8.75;;;3.58;;
7051;SDS011;3567;52.444;13.556;2022-09-17T03:10:18;10.70;;;3.50;;
7051;SDS011;3567;52.444;13.556;2022-09-17T03:12:44;10.52;;;3.08;;
7051;SDS011;3567;52.444;13.556;2022-09-17T03:15:09;8.85;;;2.60;;
7051;SDS011;3567;52.444;13.556;2022-09-17T03:17:34;9.43;;;3.08;;
7051;SDS011;3567;52.444;13.556;2022-09-17T03:20:00;16.77;;;3.13;;
7051;SDS011;3567;52.444;13.556;2022-09-17T03:22:25;6.00;;;2.72;;
7051;SDS011;3567;52.444;13.556;2022-09-17T03:24:50;12.95;;;3.40;;
7051;SDS011;3567;52.444;13.556;2022-09-17T03:27:16;8.38;;;2.97;;
7051;SDS011;3567;52.444;13.556;2022-09-17T03:29:41;13.85;;;2.78;;
7051;SDS011;3567;52.444;13.556;2022-09-17T03:32:06;10.57;;;3.05;;
7051;SDS011;3567;52.444;13.556;2022-09-17T03:34:32;9.88;;;2.85;;
7051;SDS011;3567;52.444;13.556;2022-09-17T03:36:57;11.98;;;3.15;;
7051;SDS011;3567;52.444;13.556;2022-09-17T03:39:23;8.05;;;2.65;;
7051;SDS011;3567;52.444;13.556;2022-09-17T03:41:48;9.57;;;2.67;;
7051;SDS011;3567;52.444;13.556;2022-09-17T03:44:14;11.18;;;3.30;;
7051;SDS011;3567;52.444;13.556;2022-09-17T03:46:39;15.10;;;3.05;;
7051;SDS011;3567;52.444;13.556;2022-09-17T03:49:05;7.45;;;3.08;;
7051;SDS011;3567;52.444;13.556;2022-09-17T03:51:30;10.20;;;2.72;;
7051;SDS011;3567;52.444;13.556;2022-09-17T03:53:56;10.60;;;2.42;;
7051;SDS011;3567;52.444;13.556;2022-09-17T03:56:21;7.40;;;2.53;;
7051;SDS011;3567;52.444;13.556;2022-09-17T03:58:47;10.48;;;2.65;;
7051;SDS011;3567;52.444;13.556;2022-09-17T04:01:12;8.18;;;2.75;;
7051;SDS011;3567;52.444;13.556;2022-09-17T04:03:37;8.15;;;3.00;;
7051;SDS011;3567;52.444;13.556;2022-09-17T04:06:03;18.55;;;2.85;;
7051;SDS011;3567;52.444;13.556;2022-09-17T04:08:28;5.63;;;2.30;;
7051;SDS011;3567;52.444;13.556;2022-09-17T04:10:54;10.40;;;2.30;;
7051;SDS011;3567;52.444;13.556;2022-09-17T04:13:19;13.82;;;2.58;;
7051;SDS011;3567;52.444;13.556;2022-09-17T04:15:45;12.45;;;2.50;;
7051;SDS011;3567;52.444;13.556;2022-09-17T04:18:11;9.18;;;2.03;;
7051;SDS011;3567;52.444;13.556;2022-09-17T04:20:37;8.02;;;2.53;;
7051;SDS011;3567;52.444;13.556;2022-09-17T04:23:03;8.15;;;2.15;;
7051;SDS011;3567;52.444;13.556;2022-09-17T04:25:31;13.38;;;3.33;;
7051;SDS011;3567;52.444;13.556;2022-09-17T04:27:56;11.95;;;2.88;;
7051;SDS011;3567;52.444;13.556;2022-09-17T04:30:21;11.63;;;2.38;;
7051;SDS011;3567;52.444;13.556;2022-09-17T04:32:47;13.00;;;2.70;;
7051;SDS011;3567;52.444;13.556;2022-09-17T04:35:12;11.68;;;2.22;;
7051;SDS011;3567;52.444;13.556;2022-09-17T04:37:38;10.85;;;2.42;;
7051;SDS011;3567;52.444;13.556;2022-09-17T04:40:04;13.40;;;2.55;;
7051;SDS011;3567;52.444;13.556;2022-09-17T04:42:30;6.55;;;1.75;;
7051;SDS011;3567;52.444;13.556;2022-09-17T04:44:56;12.40;;;2.58;;
7051;SDS011;3567;52.444;13.556;2022-09-17T04:47:22;9.93;;;2.33;;
7051;SDS011;3567;52.444;13.556;2022-09-17T04:49:48;9.20;;;1.88;;
7051;SDS011;3567;52.444;13.556;2022-09-17T04:52:13;13.88;;;2.40;;
7051;SDS011;3567;52.444;13.556;2022-09-17T04:54:39;15.95;;;2.20;;
7051;SDS011;3567;52.444;13.556;2022-09-17T04:57:04;16.45;;;2.80;;
7051;SDS011;3567;52.444;13.556;2022-09-17T04:59:30;17.92;;;4.97;;
7051;SDS011;3567;52.444;13.556;2022-09-17T05:01:55;13.85;;;2.58;;
7051;SDS011;3567;52.444;13.556;2022-09-17T05:04:20;7.35;;;1.85;;
7051;SDS011;3567;52.444;13.556;2022-09-17T05:06:46;15.52;;;2.95;;
7051;SDS011;3567;52.444;13.556;2022-09-17T05:09:11;10.00;;;2.50;;
7051;SDS011;3567;52.444;13.556;2022-09-17T05:11:37;13.73;;;2.38;;
7051;SDS011;3567;52.444;13.556;2022-09-17T05:14:02;9.70;;;2.38;;
7051;SDS011;3567;52.444;13.556;2022-09-17T05:16:27;6.10;;;2.28;;
7051;SDS011;3567;52.444;13.556;2022-09-17T05:18:53;8.25;;;1.98;;
7051;SDS011;3567;52.444;13.556;2022-09-17T05:21:18;10.05;;;2.00;;
7051;SDS011;3567;52.444;13.556;2022-09-17T05:23:44;15.73;;;2.15;;
7051;SDS011;3567;52.444;13.556;2022-09-17T05:26:10;20.30;;;8.07;;
7051;SDS011;3567;52.444;13.556;2022-09-17T05:28:35;12.30;;;3.05;;
7051;SDS011;3567;52.444;13.556;2022-09-17T05:31:00;7.90;;;2.55;;
7051;SDS011;3567;52.444;13.556;2022-09-17T05:33:26;9.93;;;2.78;;
7051;SDS011;3567;52.444;13.556;2022-09-17T05:35:52;7.22;;;1.92;;
7051;SDS011;3567;52.444;13.556;2022-09-17T05:38:17;7.10;;;2.00;;
7051;SDS011;3567;52.444;13.556;2022-09-17T05:40:43;8.55;;;2.55;;
7051;SDS011;3567;52.444;13.556;2022-09-17T05:43:09;8.30;;;2.45;;
7051;SDS011;3567;52.444;13.556;2022-09-17T05:45:35;12.73;;;2.80;;
7051;SDS011;3567;52.444;13.556;2022-09-17T05:48:02;14.00;;;3.00;;
7051;SDS011;3567;52.444;13.556;2022-09-17T05:50:29;14.13;;;2.75;;
7051;SDS011;3567;52.444;13.556;2022-09-17T05:52:55;9.27;;;2.58;;
7051;SDS011;3567;52.444;13.556;2022-09-17T05:55:22;5.80;;;1.92;;
7051;SDS011;3567;52.444;13.556;2022-09-17T05:57:50;7.35;;;2.38;;
7051;SDS011;3567;52.444;13.556;2022-09-17T06:00:16;10.23;;;2.70;;
7051;SDS011;3567;52.444;13.556;2022-09-17T06:02:42;10.25;;;4.43;;
7051;SDS011;3567;52.444;13.556;2022-09-17T06:05:08;12.38;;;2.38;;
7051;SDS011;3567;52.444;13.556;2022-09-17T06:07:34;13.52;;;2.40;;
7051;SDS011;3567;52.444;13.556;2022-09-17T06:10:02;7.53;;;2.53;;
7051;SDS011;3567;52.444;13.556;2022-09-17T06:12:28;13.90;;;2.72;;
7051;SDS011;3567;52.444;13.556;2022-09-17T06:14:54;8.70;;;2.97;;
7051;SDS011;3567;52.444;13.556;2022-09-17T06:17:19;11.70;;;2.90;;
7051;SDS011;3567;52.444;13.556;2022-09-17T06:19:44;7.35;;;2.50;;
7051;SDS011;3567;52.444;13.556;2022-09-17T06:22:10;10.43;;;2.67;;
7051;SDS011;3567;52.444;13.556;2022-09-17T06:24:35;17.20;;;3.85;;
7051;SDS011;3567;52.444;13.556;2022-09-17T06:27:01;13.15;;;3.42;;
7051;SDS011;3567;52.444;13.556;2022-09-17T06:29:26;11.00;;;3.45;;
7051;SDS011;3567;52.444;13.556;2022-09-17T06:31:51;13.57;;;3.95;;
7051;SDS011;3567;52.444;13.556;2022-09-17T06:34:18;19.70;;;4.32;;
7051;SDS011;3567;52.444;13.556;2022-09-17T06:36:43;10.45;;;2.97;;
7051;SDS011;3567;52.444;13.556;2022-09-17T06:39:09;17.20;;;4.57;;
7051;SDS011;3567;52.444;13.556;2022-09-17T06:41:36;15.43;;;3.72;;
7051;SDS011;3567;52.444;13.556;2022-09-17T06:44:10;16.95;;;3.40;;
7051;SDS011;3567;52.444;13.556;2022-09-17T06:46:35;20.60;;;3.95;;
7051;SDS011;3567;52.444;13.556;2022-09-17T06:49:01;20.05;;;4.32;;
7051;SDS011;3567;52.444;13.556;2022-09-17T06:51:26;25.50;;;4.50;;
7051;SDS011;3567;52.444;13.556;2022-09-17T06:53:52;17.05;;;4.10;;
7051;SDS011;3567;52.444;13.556;2022-09-17T06:56:17;14.23;;;4.15;;
7051;SDS011;3567;52.444;13.556;2022-09-17T06:58:42;13.48;;;3.35;;
7051;SDS011;3567;52.444;13.556;2022-09-17T07:01:09;19.27;;;4.75;;
7051;SDS011;3567;52.444;13.556;2022-09-17T07:03:35;23.70;;;4.10;;
7051;SDS011;3567;52.444;13.556;2022-09-17T07:06:01;19.00;;;3.42;;
7051;SDS011;3567;52.444;13.556;2022-09-17T07:08:27;21.67;;;4.35;;
7051;SDS011;3567;52.444;13.556;2022-09-17T07:10:56;15.50;;;4.10;;
7051;SDS011;3567;52.444;13.556;2022-09-17T07:13:22;13.40;;;4.15;;
7051;SDS011;3567;52.444;13.556;2022-09-17T07:15:54;13.15;;;3.65;;
7051;SDS011;3567;52.444;13.556;2022-09-17T07:18:21;16.15;;;3.42;;
7051;SDS011;3567;52.444;13.556;2022-09-17T07:21:08;19.08;;;3.47;;
7051;SDS011;3567;52.444;13.556;2022-09-17T07:23:34;16.02;;;3.28;;
7051;SDS011;3567;52.444;13.556;2022-09-17T07:26:11;18.05;;;3.47;;
7051;SDS011;3567;52.444;13.556;2022-09-17T07:28:38;15.45;;;2.78;;
7051;SDS011;3567;52.444;13.556;2022-09-17T07:31:04;11.27;;;3.03;;
7051;SDS011;3567;52.444;13.556;2022-09-17T07:33:30;14.15;;;3.30;;
7051;SDS011;3567;52.444;13.556;2022-09-17T07:35:58;15.68;;;2.85;;
7051;SDS011;3567;52.444;13.556;2022-09-17T07:38:25;14.50;;;3.17;;
7051;SDS011;3567;52.444;13.556;2022-09-17T07:43:24;14.15;;;2.13;;
7051;SDS011;3567;52.444;13.556;2022-09-17T07:45:55;14.77;;;3.08;;
7051;SDS011;3567;52.444;13.556;2022-09-17T07:48:22;9.98;;;2.97;;
7051;SDS011;3567;52.444;13.556;2022-09-17T07:50:48;19.83;;;3.63;;
7051;SDS011;3567;52.444;13.556;2022-09-17T07:53:13;16.85;;;3.15;;
7051;SDS011;3567;52.444;13.556;2022-09-17T07:55:39;19.77;;;3.10;;
7051;SDS011;3567;52.444;13.556;2022-09-17T07:58:05;9.60;;;2.65;;
7051;SDS011;3567;52.444;13.556;2022-09-17T08:00:30;14.35;;;2.60;;
7051;SDS011;3567;52.444;13.556;2022-09-17T08:02:56;13.73;;;2.45;;
7051;SDS011;3567;52.444;13.556;2022-09-17T08:05:22;13.02;;;2.08;;
7051;SDS011;3567;52.444;13.556;2022-09-17T08:07:51;11.57;;;1.95;;
7051;SDS011;3567;52.444;13.556;2022-09-17T08:10:17;12.95;;;2.22;;
7051;SDS011;3567;52.444;13.556;2022-09-17T08:12:49;16.60;;;2.22;;
7051;SDS011;3567;52.444;13.556;2022-09-17T08:15:18;16.48;;;2.38;;
7051;SDS011;3567;52.444;13.556;2022-09-17T08:17:44;17.42;;;3.35;;
7051;SDS011;3567;52.444;13.556;2022-09-17T08:20:10;15.25;;;2.42;;
7051;SDS011;3567;52.444;13.556;2022-09-17T08:22:37;11.43;;;2.00;;
7051;SDS011;3567;52.444;13.556;2022-09-17T08:25:03;15.02;;;2.60;;
7051;SDS011;3567;52.444;13.556;2022-09-17T08:27:29;11.63;;;2.92;;
7051;SDS011;3567;52.444;13.556;2022-09-17T08:29:55;13.52;;;2.80;;
7051;SDS011;3567;52.444;13.556;2022-09-17T08:32:21;10.07;;;2.40;;
7051;SDS011;3567;52.444;13.556;2022-09-17T08:34:47;12.90;;;2.90;;
7051;SDS011;3567;52.444;13.556;2022-09-17T08:37:12;9.55;;;2.80;;
7051;SDS011;3567;52.444;13.556;2022-09-17T08:39:38;14.35;;;3.00;;
7051;SDS011;3567;52.444;13.556;2022-09-17T08:42:26;11.32;;;2.47;;
7051;SDS011;3567;52.444;13.556;2022-09-17T08:44:56;10.75;;;3.10;;
7051;SDS011;3567;52.444;13.556;2022-09-17T08:50:12;9.73;;;2.38;;
7051;SDS011;3567;52.444;13.556;2022-09-17T09:03:31;11.13;;;2.08;;
7051;SDS011;3567;52.444;13.556;2022-09-17T09:06:06;11.60;;;1.92;;
7051;SDS011;3567;52.444;13.556;2022-09-17T09:08:36;9.60;;;1.88;;
7051;SDS011;3567;52.444;13.556;2022-09-17T09:11:12;6.22;;;1.77;;
7051;SDS011;3567;52.444;13.556;2022-09-17T09:13:45;8.43;;;1.85;;
7051;SDS011;3567;52.444;13.556;2022-09-17T09:16:15;5.38;;;1.30;;
7051;SDS011;3567;52.444;13.556;2022-09-17T09:18:43;5.53;;;1.77;;
7051;SDS011;3567;52.444;13.556;2022-09-17T09:23:54;9.20;;;1.83;;
7051;SDS011;3567;52.444;13.556;2022-09-17T09:34:47;6.60;;;1.35;;
7051;SDS011;3567;52.444;13.556;2022-09-17T09:40:00;18.65;;;2.78;;
7051;SDS011;3567;52.444;13.556;2022-09-17T09:42:42;6.50;;;1.85;;
7051;SDS011;3567;52.444;13.556;2022-09-17T09:45:13;11.90;;;1.75;;
7051;SDS011;3567;52.444;13.556;2022-09-17T09:47:48;9.60;;;1.88;;
7051;SDS011;3567;52.444;13.556;2022-09-17T09:50:40;8.68;;;1.60;;
7051;SDS011;3567;52.444;13.556;2022-09-17T09:53:22;11.63;;;1.92;;
7051;SDS011;3567;52.444;13.556;2022-09-17T09:56:26;8.68;;;2.00;;
7051;SDS011;3567;52.444;13.556;2022-09-17T09:59:13;6.75;;;1.70;;
7051;SDS011;3567;52.444;13.556;2022-09-17T10:01:42;9.75;;;1.73;;
7051;SDS011;3567;52.444;13.556;2022-09-17T10:04:16;7.82;;;1.55;;
7051;SDS011;3567;52.444;13.556;2022-09-17T10:06:45;6.57;;;1.67;;
7051;SDS011;3567;52.444;13.556;2022-09-17T10:09:13;7.68;;;1.77;;
7051;SDS011;3567;52.444;13.556;2022-09-17T10:11:41;8.73;;;1.80;;
7051;SDS011;3567;52.444;13.556;2022-09-17T10:14:18;9.15;;;1.70;;
7051;SDS011;3567;52.444;13.556;2022-09-17T10:17:14;6.03;;;1.17;;
7051;SDS011;3567;52.444;13.556;2022-09-17T10:19:41;10.00;;;1.80;;
7051;SDS011;3567;52.444;13.556;2022-09-17T10:24:41;10.55;;;1.88;;
7051;SDS011;3567;52.444;13.556;2022-09-17T10:27:10;8.05;;;2.30;;
7051;SDS011;3567;52.444;13.556;2022-09-17T10:29:43;11.85;;;2.00;;
7051;SDS011;3567;52.444;13.556;2022-09-17T10:32:15;6.47;;;2.28;;
7051;SDS011;3567;52.444;13.556;2022-09-17T10:35:00;8.82;;;2.15;;
7051;SDS011;3567;52.444;13.556;2022-09-17T10:37:42;8.60;;;1.52;;
7051;SDS011;3567;52.444;13.556;2022-09-17T10:42:44;7.10;;;1.38;;
7051;SDS011;3567;52.444;13.556;2022-09-17T10:45:38;8.38;;;1.83;;
7051;SDS011;3567;52.444;13.556;2022-09-17T10:48:12;8.10;;;1.27;;
7051;SDS011;3567;52.444;13.556;2022-09-17T10:50:41;10.45;;;1.55;;
7051;SDS011;3567;52.444;13.556;2022-09-17T10:53:14;7.60;;;1.17;;
7051;SDS011;3567;52.444;13.556;2022-09-17T10:55:43;10.48;;;1.70;;
7051;SDS011;3567;52.444;13.556;2022-09-17T10:58:42;7.13;;;1.23;;
7051;SDS011;3567;52.444;13.556;2022-09-17T11:01:19;8.55;;;1.45;;
7051;SDS011;3567;52.444;13.556;2022-09-17T11:04:07;6.65;;;1.58;;
7051;SDS011;3567;52.444;13.556;2022-09-17T11:12:31;10.20;;;2.03;;
7051;SDS011;3567;52.444;13.556;2022-09-17T11:15:22;8.32;;;2.42;;
7051;SDS011;3567;52.444;13.556;2022-09-17T11:18:01;8.55;;;1.60;;
7051;SDS011;3567;52.444;13.556;2022-09-17T11:26:11;7.13;;;1.52;;
7051;SDS011;3567;52.444;13.556;2022-09-17T11:34:19;5.68;;;1.25;;
7051;SDS011;3567;52.444;13.556;2022-09-17T11:39:20;7.05;;;1.15;;
7051;SDS011;3567;52.444;13.556;2022-09-17T11:41:50;4.22;;;1.95;;
7051;SDS011;3567;52.444;13.556;2022-09-17T11:44:42;9.00;;;1.60;;
7051;SDS011;3567;52.444;13.556;2022-09-17T11:47:14;7.43;;;1.42;;
7051;SDS011;3567;52.444;13.556;2022-09-17T11:49:49;7.30;;;1.23;;
7051;SDS011;3567;52.444;13.556;2022-09-17T11:52:21;9.75;;;1.67;;
7051;SDS011;3567;52.444;13.556;2022-09-17T11:54:54;6.38;;;1.08;;
7051;SDS011;3567;52.444;13.556;2022-09-17T11:57:31;7.68;;;1.50;;
7051;SDS011;3567;52.444;13.556;2022-09-17T12:02:44;5.88;;;1.05;;
7051;SDS011;3567;52.444;13.556;2022-09-17T12:05:39;5.13;;;1.00;;
7051;SDS011;3567;52.444;13.556;2022-09-17T12:11:56;4.30;;;1.05;;
7051;SDS011;3567;52.444;13.556;2022-09-17T12:14:08;4.32;;;0.70;;
7051;SDS011;3567;52.444;13.556;2022-09-17T12:16:45;6.70;;;0.98;;
7051;SDS011;3567;52.444;13.556;2022-09-17T12:24:45;3.45;;;1.00;;
7051;SDS011;3567;52.444;13.556;2022-09-17T12:38:10;4.38;;;0.95;;
7051;SDS011;3567;52.444;13.556;2022-09-17T12:43:30;3.15;;;1.02;;
7051;SDS011;3567;52.444;13.556;2022-09-17T12:48:55;4.72;;;0.55;;
7051;SDS011;3567;52.444;13.556;2022-09-17T12:59:52;5.18;;;0.70;;
7051;SDS011;3567;52.444;13.556;2022-09-17T13:02:42;8.02;;;1.23;;
7051;SDS011;3567;52.444;13.556;2022-09-17T13:05:35;6.32;;;1.15;;
7051;SDS011;3567;52.444;13.556;2022-09-17T13:22:19;5.40;;;1.30;;
7051;SDS011;3567;52.444;13.556;2022-09-17T13:24:47;3.45;;;1.00;;
7051;SDS011;3567;52.444;13.556;2022-09-17T13:27:27;3.90;;;0.90;;
7051;SDS011;3567;52.444;13.556;2022-09-17T13:37:39;2.42;;;0.57;;
7051;SDS011;3567;52.444;13.556;2022-09-17T13:40:26;1.58;;;0.45;;
7051;SDS011;3567;52.444;13.556;2022-09-17T13:42:53;5.50;;;0.60;;
7051;SDS011;3567;52.444;13.556;2022-09-17T13:45:21;2.65;;;0.70;;
7051;SDS011;3567;52.444;13.556;2022-09-17T13:47:52;2.85;;;0.95;;
7051;SDS011;3567;52.444;13.556;2022-09-17T13:58:19;4.40;;;0.88;;
7051;SDS011;3567;52.444;13.556;2022-09-17T14:05:52;4.00;;;0.80;;
7051;SDS011;3567;52.444;13.556;2022-09-17T14:09:00;6.05;;;0.95;;
7051;SDS011;3567;52.444;13.556;2022-09-17T14:13:51;8.13;;;1.08;;
7051;SDS011;3567;52.444;13.556;2022-09-17T14:18:59;3.75;;;1.23;;
7051;SDS011;3567;52.444;13.556;2022-09-17T14:27:14;7.88;;;1.52;;
7051;SDS011;3567;52.444;13.556;2022-09-17T14:38:21;4.70;;;0.93;;
7051;SDS011;3567;52.444;13.556;2022-09-17T14:40:52;2.55;;;1.00;;
7051;SDS011;3567;52.444;13.556;2022-09-17T14:43:30;6.80;;;1.27;;
7051;SDS011;3567;52.444;13.556;2022-09-17T14:45:59;6.75;;;1.65;;
7051;SDS011;3567;52.444;13.556;2022-09-17T14:48:31;4.78;;;0.95;;
7051;SDS011;3567;52.444;13.556;2022-09-17T14:53:42;3.92;;;1.02;;
7051;SDS011;3567;52.444;13.556;2022-09-17T14:56:31;3.72;;;1.00;;
7051;SDS011;3567;52.444;13.556;2022-09-17T14:58:58;2.40;;;0.60;;
7051;SDS011;3567;52.444;13.556;2022-09-17T15:01:26;3.42;;;0.60;;
7051;SDS011;3567;52.444;13.556;2022-09-17T15:06:36;7.20;;;0.95;;
7051;SDS011;3567;52.444;13.556;2022-09-17T15:09:03;3.55;;;0.80;;
7051;SDS011;3567;52.444;13.556;2022-09-17T15:11:29;3.75;;;0.80;;
7051;SDS011;3567;52.444;13.556;2022-09-17T15:13:59;7.15;;;0.77;;
7051;SDS011;3567;52.444;13.556;2022-09-17T15:16:29;3.85;;;0.68;;
7051;SDS011;3567;52.444;13.556;2022-09-17T15:18:57;3.28;;;0.40;;
7051;SDS011;3567;52.444;13.556;2022-09-17T15:21:34;0.80;;;0.38;;
7051;SDS011;3567;52.444;13.556;2022-09-17T15:24:26;0.82;;;0.40;;
7051;SDS011;3567;52.444;13.556;2022-09-17T15:26:55;1.27;;;0.40;;
7051;SDS011;3567;52.444;13.556;2022-09-17T15:29:25;2.10;;;0.60;;
7051;SDS011;3567;52.444;13.556;2022-09-17T15:31:53;1.23;;;0.50;;
7051;SDS011;3567;52.444;13.556;2022-09-17T15:34:19;3.53;;;0.30;;
7051;SDS011;3567;52.444;13.556;2022-09-17T15:37:02;0.30;;;0.10;;
7051;SDS011;3567;52.444;13.556;2022-09-17T15:39:48;0.60;;;0.40;;
7051;SDS011;3567;52.444;13.556;2022-09-17T15:42:25;0.40;;;0.20;;
7051;SDS011;3567;52.444;13.556;2022-09-17T15:47:53;0.73;;;0.20;;
7051;SDS011;3567;52.444;13.556;2022-09-17T15:50:21;0.52;;;0.30;;
7051;SDS011;3567;52.444;13.556;2022-09-17T15:52:49;3.95;;;0.30;;
7051;SDS011;3567;52.444;13.556;2022-09-17T15:55:25;1.05;;;0.30;;
7051;SDS011;3567;52.444;13.556;2022-09-17T15:57:56;1.80;;;0.30;;
7051;SDS011;3567;52.444;13.556;2022-09-17T16:00:23;2.28;;;0.73;;
7051;SDS011;3567;52.444;13.556;2022-09-17T16:02:49;2.17;;;0.60;;
7051;SDS011;3567;52.444;13.556;2022-09-17T16:07:40;3.83;;;0.80;;
7051;SDS011;3567;52.444;13.556;2022-09-17T16:10:08;0.60;;;0.60;;
7051;SDS011;3567;52.444;13.556;2022-09-17T16:12:34;3.13;;;1.23;;
7051;SDS011;3567;52.444;13.556;2022-09-17T16:15:00;1.80;;;0.50;;
7051;SDS011;3567;52.444;13.556;2022-09-17T16:17:40;1.67;;;0.60;;
7051;SDS011;3567;52.444;13.556;2022-09-17T16:20:17;1.70;;;0.60;;
7051;SDS011;3567;52.444;13.556;2022-09-17T16:22:46;1.95;;;0.43;;
7051;SDS011;3567;52.444;13.556;2022-09-17T16:25:15;1.58;;;0.77;;
7051;SDS011;3567;52.444;13.556;2022-09-17T16:28:02;1.30;;;0.40;;
7051;SDS011;3567;52.444;13.556;2022-09-17T16:30:30;2.92;;;0.60;;
7051;SDS011;3567;52.444;13.556;2022-09-17T16:32:56;1.92;;;0.60;;
7051;SDS011;3567;52.444;13.556;2022-09-17T16:35:22;2.15;;;0.60;;
7051;SDS011;3567;52.444;13.556;2022-09-17T16:37:50;1.10;;;0.50;;
7051;SDS011;3567;52.444;13.556;2022-09-17T16:40:17;2.22;;;0.88;;
7051;SDS011;3567;52.444;13.556;2022-09-17T16:42:44;1.15;;;0.60;;
7051;SDS011;3567;52.444;13.556;2022-09-17T16:45:09;1.70;;;0.40;;
7051;SDS011;3567;52.444;13.556;2022-09-17T16:47:35;3.97;;;0.40;;
7051;SDS011;3567;52.444;13.556;2022-09-17T16:50:03;5.47;;;1.00;;
7051;SDS011;3567;52.444;13.556;2022-09-17T16:52:37;2.00;;;1.60;;
7051;SDS011;3567;52.444;13.556;2022-09-17T16:55:03;19.17;;;14.15;;
7051;SDS011;3567;52.444;13.556;2022-09-17T16:57:30;6.03;;;4.20;;
7051;SDS011;3567;52.444;13.556;2022-09-17T16:59:56;1.52;;;0.88;;
7051;SDS011;3567;52.444;13.556;2022-09-17T17:02:21;27.00;;;20.00;;
7051;SDS011;3567;52.444;13.556;2022-09-17T17:04:47;5.25;;;2.17;;
7051;SDS011;3567;52.444;13.556;2022-09-17T17:07:12;2.17;;;0.70;;
7051;SDS011;3567;52.444;13.556;2022-09-17T17:09:38;1.60;;;1.33;;
7051;SDS011;3567;52.444;13.556;2022-09-17T17:12:04;2.63;;;0.82;;
7051;SDS011;3567;52.444;13.556;2022-09-17T17:14:30;2.17;;;0.70;;
7051;SDS011;3567;52.444;13.556;2022-09-17T17:16:55;3.38;;;2.53;;
7051;SDS011;3567;52.444;13.556;2022-09-17T17:19:20;5.68;;;3.45;;
7051;SDS011;3567;52.444;13.556;2022-09-17T17:21:50;5.72;;;1.70;;
7051;SDS011;3567;52.444;13.556;2022-09-17T17:24:16;1.10;;;1.00;;
7051;SDS011;3567;52.444;13.556;2022-09-17T17:26:42;7.13;;;0.90;;
7051;SDS011;3567;52.444;13.556;2022-09-17T17:29:07;2.65;;;0.45;;
7051;SDS011;3567;52.444;13.556;2022-09-17T17:31:33;5.43;;;2.90;;
7051;SDS011;3567;52.444;13.556;2022-09-17T17:33:58;1.83;;;0.70;;
7051;SDS011;3567;52.444;13.556;2022-09-17T17:36:24;3.10;;;0.80;;
7051;SDS011;3567;52.444;13.556;2022-09-17T17:38:49;0.47;;;0.47;;
7051;SDS011;3567;52.444;13.556;2022-09-17T17:41:15;4.20;;;3.33;;
7051;SDS011;3567;52.444;13.556;2022-09-17T17:43:42;1.60;;;0.60;;
7051;SDS011;3567;52.444;13.556;2022-09-17T17:46:08;2.40;;;0.55;;
7051;SDS011;3567;52.444;13.556;2022-09-17T17:48:35;2.00;;;0.57;;
7051;SDS011;3567;52.444;13.556;2022-09-17T17:51:01;3.65;;;0.75;;
7051;SDS011;3567;52.444;13.556;2022-09-17T17:53:34;0.85;;;0.70;;
7051;SDS011;3567;52.444;13.556;2022-09-17T17:56:01;2.67;;;0.80;;
7051;SDS011;3567;52.444;13.556;2022-09-17T17:58:29;2.60;;;0.68;;
7051;SDS011;3567;52.444;13.556;2022-09-17T18:00:55;1.08;;;0.80;;
7051;SDS011;3567;52.444;13.556;2022-09-17T18:03:21;5.40;;;1.30;;
7051;SDS011;3567;52.444;13.556;2022-09-17T18:05:52;1.33;;;1.13;;
7051;SDS011;3567;52.444;13.556;2022-09-17T18:08:20;1.55;;;0.52;;
7051;SDS011;3567;52.444;13.556;2022-09-17T18:10:55;2.63;;;0.70;;
7051;SDS011;3567;52.444;13.556;2022-09-17T18:13:24;0.90;;;0.90;;
7051;SDS011;3567;52.444;13.556;2022-09-17T18:15:54;1.55;;;0.40;;
7051;SDS011;3567;52.444;13.556;2022-09-17T18:18:23;1.92;;;0.70;;
7051;SDS011;3567;52.444;13.556;2022-09-17T18:20:49;4.53;;;0.70;;
7051;SDS011;3567;52.444;13.556;2022-09-17T18:23:17;2.55;;;0.65;;
7051;SDS011;3567;52.444;13.556;2022-09-17T18:25:56;4.32;;;0.63;;
7051;SDS011;3567;52.444;13.556;2022-09-17T18:28:23;2.10;;;0.95;;
7051;SDS011;3567;52.444;13.556;2022-09-17T18:30:49;2.70;;;0.90;;